Time;durP1;ratioP1;P1;durP2;ratioP2;P2;SDS_P1;SDS_P2;PMS_P1;PMS_P2;Temp;Humidity;BMP_temperature;BMP_pressure;BME280_temperature;BME280_humidity;BME280_pressure;Samples;Min_cycle;Max_cycle;Signal;HPM_P1;HPM_P2
2022/01/14 00:05:11;;;;;;;0.20;0.10;;;6.70;99.90;;;;;;25587333;23;20599;-64
2022/01/14 00:15:24;;;;;;;0.20;0.10;;;6.60;99.90;;;;;;25586976;23;20703;-64
2022/01/14 00:35:51;;;;;;;0.20;0.10;;;6.60;99.90;;;;;;25585138;23;20198;-75
2022/01/14 00:45:57;;;;;;;0.20;0.10;;;6.50;99.90;;;;;;25586415;23;20281;-77
2022/01/14 00:56:09;;;;;;;0.20;0.10;;;6.40;99.90;;;;;;25586699;23;20204;-67
2022/01/14 01:06:14;;;;;;;0.20;0.00;;;6.30;99.90;;;;;;25583795;23;20280;-67
2022/01/14 01:16:17;;;;;;;0.20;0.10;;;6.30;99.90;;;;;;25585997;23;20202;-75
2022/01/14 01:26:28;;;;;;;0.20;0.10;;;6.20;99.90;;;;;;25583873;23;20186;-74
2022/01/14 01:36:32;;;;;;;0.20;0.10;;;6.20;99.90;;;;;;25587004;23;20224;-74
2022/01/14 01:46:40;;;;;;;0.20;0.00;;;6.20;99.90;;;;;;25589782;23;20244;-73
2022/01/14 01:56:44;;;;;;;0.20;0.10;;;6.00;99.90;;;;;;25589086;23;20202;-73
2022/01/14 02:06:51;;;;;;;0.20;0.10;;;6.10;99.90;;;;;;25592128;23;20218;-74
2022/01/14 02:17:16;;;;;;;0.20;0.10;;;5.90;99.90;;;;;;25593774;23;20173;-75
2022/01/14 02:27:21;;;;;;;0.20;0.10;;;6.00;99.90;;;;;;25590919;23;20269;-73
2022/01/14 02:37:25;;;;;;;0.20;0.10;;;5.90;99.90;;;;;;25587666;23;20294;-74
2022/01/14 02:47:31;;;;;;;0.20;0.10;;;5.80;99.90;;;;;;25590790;23;20277;-75
2022/01/14 02:57:35;;;;;;;0.20;0.00;;;5.90;99.90;;;;;;25590453;23;20197;-74
2022/01/14 03:07:41;;;;;;;0.20;0.00;;;5.90;99.90;;;;;;25589813;23;20272;-74
2022/01/14 03:17:45;;;;;;;0.20;0.10;;;5.90;99.90;;;;;;25588347;23;20562;-74
2022/01/14 03:27:51;;;;;;;0.20;0.10;;;5.90;99.90;;;;;;25585947;23;20277;-67
2022/01/14 03:37:55;;;;;;;0.20;0.10;;;5.90;99.90;;;;;;25587302;23;20218;-68
2022/01/14 03:48:01;;;;;;;0.20;0.10;;;5.80;99.90;;;;;;25590083;23;20278;-70
2022/01/14 03:58:05;;;;;;;0.20;0.10;;;5.90;99.90;;;;;;25587112;23;20273;-71
2022/01/14 04:08:10;;;;;;;0.20;0.10;;;6.00;99.90;;;;;;25587532;23;20248;-70
2022/01/14 04:18:17;;;;;;;0.20;0.10;;;5.70;99.90;;;;;;25585937;23;20256;-65
2022/01/14 04:28:24;;;;;;;0.20;0.10;;;5.90;99.90;;;;;;25588051;23;20272;-66
2022/01/14 04:38:30;;;;;;;0.20;0.10;;;5.60;99.90;;;;;;25582899;23;20668;-65
2022/01/14 04:48:37;;;;;;;0.20;0.10;;;5.60;99.90;;;;;;25585866;23;20660;-65
2022/01/14 04:58:41;;;;;;;0.20;0.10;;;5.60;99.90;;;;;;25583570;23;20675;-66
2022/01/14 05:08:47;;;;;;;0.20;0.10;;;5.30;99.90;;;;;;25587023;23;20508;-66
2022/01/14 05:18:50;;;;;;;0.20;0.10;;;5.50;99.90;;;;;;25594462;23;20245;-67
2022/01/14 05:28:56;;;;;;;0.20;0.10;;;5.80;99.90;;;;;;25592445;23;20213;-65
2022/01/14 05:38:59;;;;;;;1.17;1.17;;;5.60;99.90;;;;;;25592023;23;20723;-72
2022/01/14 05:49:05;;;;;;;0.20;0.10;;;5.80;99.90;;;;;;25592782;23;20261;-72
2022/01/14 05:59:09;;;;;;;0.40;0.40;;;5.70;99.90;;;;;;25592794;23;20198;-74
2022/01/14 06:09:14;;;;;;;0.20;0.10;;;5.60;99.90;;;;;;25592025;23;20284;-70
2022/01/14 06:19:18;;;;;;;0.20;0.10;;;5.40;99.90;;;;;;25590287;23;20356;-70
2022/01/14 06:29:23;;;;;;;0.57;0.57;;;5.40;99.90;;;;;;25591778;23;20269;-71
2022/01/14 06:39:27;;;;;;;0.20;0.10;;;5.30;99.90;;;;;;25589371;23;20280;-70
2022/01/14 06:49:32;;;;;;;0.20;0.10;;;5.20;99.90;;;;;;25587851;23;20272;-70
2022/01/14 06:59:37;;;;;;;0.20;0.10;;;5.20;99.90;;;;;;25586490;23;20197;-70
2022/01/14 07:09:56;;;;;;;0.20;0.10;;;5.30;99.90;;;;;;25578295;23;20190;-68
2022/01/14 07:20:05;;;;;;;0.20;0.10;;;5.30;99.90;;;;;;25584794;23;20212;-66
2022/01/14 07:30:12;;;;;;;0.20;0.10;;;5.30;99.90;;;;;;25585138;23;20734;-66
2022/01/14 07:40:16;;;;;;;0.20;0.10;;;5.40;99.90;;;;;;25583268;23;20190;-67
2022/01/14 07:50:22;;;;;;;0.20;0.20;;;5.50;99.90;;;;;;25581361;23;20282;-67
2022/01/14 08:00:26;;;;;;;3.63;3.37;;;5.70;99.90;;;;;;25583892;23;20565;-67
2022/01/14 08:10:31;;;;;;;0.20;0.10;;;6.10;99.90;;;;;;25580677;23;20222;-66
2022/01/14 08:20:35;;;;;;;0.20;0.20;;;6.60;99.90;;;;;;25582803;23;20258;-67
2022/01/14 08:30:40;;;;;;;0.20;0.10;;;6.80;99.90;;;;;;25581738;23;20229;-67
2022/01/14 08:40:44;;;;;;;0.40;0.40;;;7.00;99.90;;;;;;25581085;23;20228;-67
2022/01/14 08:50:49;;;;;;;0.20;0.10;;;7.40;99.90;;;;;;25582954;23;20217;-68
2022/01/14 09:00:53;;;;;;;0.20;0.10;;;7.60;99.90;;;;;;25583343;23;20213;-67
2022/01/14 09:10:58;;;;;;;2.43;2.00;;;7.80;99.90;;;;;;25581514;23;20244;-67
2022/01/14 09:21:02;;;;;;;0.20;0.10;;;7.80;99.90;;;;;;25580888;23;20248;-66
2022/01/14 09:31:07;;;;;;;0.20;0.10;;;7.80;99.90;;;;;;25581147;23;20255;-69
2022/01/14 09:41:15;;;;;;;0.47;0.47;;;8.10;99.90;;;;;;25580903;23;20173;-69
2022/01/14 09:51:21;;;;;;;1.43;1.33;;;8.50;99.90;;;;;;25582116;23;20162;-68
2022/01/14 10:01:25;;;;;;;0.30;0.30;;;8.90;99.90;;;;;;25583921;23;20278;-68
2022/01/14 10:11:30;;;;;;;0.20;0.10;;;8.80;99.90;;;;;;25586702;23;20191;-68
2022/01/14 10:21:35;;;;;;;0.20;0.10;;;9.50;99.90;;;;;;25584843;23;20639;-69
2022/01/14 10:31:42;;;;;;;0.50;0.50;;;10.30;99.90;;;;;;25587735;23;20739;-69
2022/01/14 10:41:45;;;;;;;0.20;0.10;;;11.30;99.90;;;;;;25572862;23;20240;-70
2022/01/14 10:52:10;;;;;;;0.20;0.10;;;11.40;99.90;;;;;;25569883;23;20359;-69
2022/01/14 13:05:24;;;;;;;0.20;0.10;;;17.90;99.90;;;;;;25557990;23;20210;-70
2022/01/14 13:15:28;;;;;;;0.20;0.10;;;18.00;99.90;;;;;;25565827;23;20723;-70
2022/01/14 13:25:33;;;;;;;0.57;0.57;;;18.40;99.90;;;;;;25564837;23;20194;-70
2022/01/14 13:35:39;;;;;;;0.20;0.10;;;18.50;99.90;;;;;;25565222;23;20313;-70
2022/01/14 13:45:48;;;;;;;0.20;0.10;;;18.20;99.90;;;;;;25573876;23;20240;-68
2022/01/14 13:55:54;;;;;;;0.20;0.10;;;17.80;99.90;;;;;;25573520;23;20174;-67
2022/01/14 14:06:08;;;;;;;0.20;0.10;;;18.50;99.90;;;;;;25574538;23;20213;-67
2022/01/14 14:16:27;;;;;;;0.20;0.00;;;18.50;99.90;;;;;;25574981;23;20602;-67
2022/01/14 14:26:34;;;;;;;0.20;0.10;;;19.30;99.90;;;;;;25574311;23;20201;-71
2022/01/14 14:36:39;;;;;;;0.53;0.53;;;19.30;99.90;;;;;;25572954;23;20150;-68
2022/01/14 14:46:48;;;;;;;0.20;0.10;;;19.60;99.90;;;;;;25571015;23;20277;-68
2022/01/14 14:56:52;;;;;;;0.20;0.10;;;19.10;99.90;;;;;;25567573;23;20660;-67
2022/01/14 15:06:58;;;;;;;0.20;0.10;;;18.00;99.90;;;;;;25565519;23;20212;-67
2022/01/14 15:18:10;;;;;;;0.20;0.00;;;18.00;99.90;;;;;;25563748;23;20176;-67
2022/01/14 15:27:47;;;;;;;0.20;0.00;;;17.90;99.90;;;;;;25563918;23;20729;-68
2022/01/14 15:37:51;;;;;;;0.20;0.10;;;17.90;99.90;;;;;;25565658;23;20642;-67
2022/01/14 15:48:17;;;;;;;0.20;0.10;;;17.70;99.90;;;;;;25566092;23;20248;-66
2022/01/14 15:58:21;;;;;;;0.20;0.10;;;16.90;99.90;;;;;;25563875;23;20224;-67
2022/01/14 16:08:27;;;;;;;0.20;0.00;;;16.00;99.90;;;;;;25560056;23;20285;-68
2022/01/14 16:18:31;;;;;;;0.20;0.10;;;14.70;99.90;;;;;;25561155;23;20552;-66
2022/01/14 16:28:36;;;;;;;0.20;0.10;;;13.40;99.90;;;;;;25562522;23;20193;-67
2022/01/14 16:38:40;;;;;;;0.20;0.10;;;12.60;99.90;;;;;;25564717;23;20236;-72
2022/01/14 16:48:45;;;;;;;0.20;0.10;;;11.80;99.90;;;;;;25563784;23;20626;-73
2022/01/14 16:58:50;;;;;;;0.20;0.10;;;11.10;99.90;;;;;;25563380;23;20209;-73
2022/01/14 17:08:56;;;;;;;0.20;0.10;;;10.70;99.90;;;;;;25571790;23;20208;-76
2022/01/14 17:18:59;;;;;;;0.20;0.10;;;10.00;99.90;;;;;;25577699;23;20245;-74
2022/01/14 17:29:05;;;;;;;0.20;0.00;;;9.50;99.90;;;;;;25582626;23;20197;-75
2022/01/14 17:39:08;;;;;;;0.20;0.10;;;9.10;99.90;;;;;;25598590;23;20635;-70
2022/01/14 17:49:15;;;;;;;0.40;0.40;;;9.00;99.90;;;;;;25590043;23;20198;-74
2022/01/14 17:59:19;;;;;;;0.20;0.10;;;8.60;99.90;;;;;;25589849;23;20286;-84
2022/01/14 18:09:25;;;;;;;0.20;0.00;;;8.30;99.90;;;;;;25590158;23;20190;-74
2022/01/14 18:19:29;;;;;;;0.20;0.10;;;8.20;99.90;;;;;;25586996;23;20258;-80
2022/01/14 18:29:38;;;;;;;0.43;0.43;;;8.10;99.90;;;;;;25583720;23;20186;-68
2022/01/14 18:39:42;;;;;;;0.20;0.10;;;8.10;99.90;;;;;;25583184;23;20664;-68
2022/01/14 18:49:48;;;;;;;0.20;0.10;;;7.90;99.90;;;;;;25580816;23;20190;-67
2022/01/14 18:59:52;;;;;;;0.20;0.10;;;7.60;99.90;;;;;;25581561;23;20198;-67
2022/01/14 19:09:57;;;;;;;0.20;0.00;;;7.70;99.90;;;;;;25583885;23;20190;-67
2022/01/14 19:20:02;;;;;;;0.20;0.17;;;7.50;99.90;;;;;;25588036;23;20250;-72
2022/01/14 19:30:09;;;;;;;0.20;0.00;;;7.50;99.90;;;;;;25585202;23;20190;-72
2022/01/14 19:40:14;;;;;;;0.20;0.07;;;7.50;99.90;;;;;;25586699;23;20166;-73
2022/01/14 19:50:19;;;;;;;0.20;0.00;;;7.50;99.90;;;;;;25585692;23;20623;-73
2022/01/14 20:00:23;;;;;;;0.20;0.20;;;7.30;99.90;;;;;;25584963;23;20198;-65
2022/01/14 20:10:29;;;;;;;0.20;0.10;;;7.10;99.90;;;;;;25584928;23;20659;-67
2022/01/14 20:20:33;;;;;;;0.20;0.10;;;6.90;99.90;;;;;;25584281;23;20189;-73
2022/01/14 20:30:39;;;;;;;0.20;0.20;;;6.80;99.90;;;;;;25584092;23;20225;-69
2022/01/14 20:40:43;;;;;;;0.20;0.00;;;6.90;99.90;;;;;;25578167;23;20196;-67
2022/01/14 20:50:48;;;;;;;0.20;0.00;;;6.60;99.90;;;;;;25576552;23;20217;-68
2022/01/14 21:00:52;;;;;;;0.20;0.10;;;6.50;99.90;;;;;;25577676;23;20289;-68
2022/01/14 21:10:58;;;;;;;0.20;0.10;;;6.60;99.90;;;;;;25576476;23;20197;-69
2022/01/14 21:21:02;;;;;;;0.20;0.00;;;6.60;99.90;;;;;;25577416;23;20265;-69
2022/01/14 21:31:07;;;;;;;0.20;0.20;;;6.50;99.90;;;;;;25577913;23;20699;-72
2022/01/14 21:41:11;;;;;;;0.20;0.07;;;6.70;99.90;;;;;;25577567;23;20174;-71
2022/01/14 21:51:19;;;;;;;0.20;0.00;;;7.00;99.90;;;;;;25580778;23;20265;-66
2022/01/14 22:01:23;;;;;;;0.20;0.10;;;7.00;99.90;;;;;;25583813;23;20285;-67
2022/01/14 22:11:28;;;;;;;0.20;0.10;;;6.40;99.90;;;;;;25584758;23;20277;-69
2022/01/14 22:21:32;;;;;;;0.20;0.00;;;6.80;99.90;;;;;;25586140;23;20201;-69
2022/01/14 22:31:37;;;;;;;0.20;0.00;;;7.80;99.90;;;;;;25582969;23;20190;-70
2022/01/14 22:41:41;;;;;;;0.20;0.10;;;7.70;99.90;;;;;;25584165;23;20193;-72
2022/01/14 22:51:46;;;;;;;0.20;0.10;;;7.30;99.90;;;;;;25586008;23;20198;-70
2022/01/14 23:01:50;;;;;;;0.20;0.10;;;6.60;99.90;;;;;;25584236;23;20259;-70
2022/01/14 23:11:56;;;;;;;0.20;0.00;;;5.20;99.90;;;;;;25586948;23;20186;-71
2022/01/14 23:22:00;;;;;;;0.20;0.10;;;5.60;99.90;;;;;;25585181;23;20604;-69
2022/01/14 23:32:06;;;;;;;0.20;0.10;;;6.60;99.90;;;;;;25583570;23;20273;-70
2022/01/14 23:42:12;;;;;;;0.20;0.07;;;7.50;99.90;;;;;;25583424;23;20154;-71
2022/01/14 23:52:20;;;;;;;0.20;0.10;;;7.50;99.90;;;;;;25582256;23;20194;-65
